Terminal Aerodrome Forecast
Issued by NWS

Home | Current Version | Previous Version | Text Only | Print | Product List | Glossary On
Versions: 1 2 3 4 5 6 7 8 9 10 11 12 13 14 15 16 17 18 19 20 21 22 23 24 25 26 27 28
000
FTAK31 PANC 210524
TAFATK
TAF
PATK 210524Z 2106/2206 16006KT P6SM -SHRASN SCT015 OVC035
      TEMPO 2106/2110 3SM -SHSN BKN015
     FM211200 VRB04KT P6SM VCSH SCT025 BKN050=

USA.gov is the U.S. government's official web portal to all federal, state and local government web resources and services.